94TE weather

Barbaro North Heliport
Argyle, Texas, United States

Public forecast

Using degrees Fahrenheit for public forecast. Weather courtesy of forecast.io.

Closest aviation weather report (METAR) to Barbaro North Heliport

Closest report is Denton Municipal Airport, 6.7 nm (12.4 km) NNW. Retrieved 2020/08/05 06:53 UTC (17 minutes ago):

KDTO 050653Z AUTO 09005KT 10SM BKN110 26/17 A2997 RMK AO2 SLP139 T02610167

Closest aviation forecast (TAF) to Barbaro North Heliport

Closest forecast is Fort Worth Alliance Airport, 10.9 nm (20.2 km) SW. Retrieved 2020/08/05 06:36 UTC (34 minutes ago):

TAF KAFW 050535Z 0506/0606 09006KT P6SM BKN110 FM051200 17007KT P6SM VCSH BKN100 FM051800 13009KT P6SM SCT100